Change the Weather History Date:

Monday, November 14, 2011

  Actual Average Record
Temperature  
Mean Temperature 73 °F -  
Max Temperature 77 °F 56 °F 77 °F (2011)
Min Temperature 69 °F 40 °F 21 °F (2014)
Cooling Degree Days 8    
Growing Degree Days 23 (Base 50)    
Moisture  
Dew Point 57 °F    
Average Humidity 58    
Maximum Humidity 64    
Minimum Humidity 53    
Precipitation  
Precipitation 0.00 in - - ()
Sea Level Pressure  
Sea Level Pressure 29.82 in    
Wind  
Wind Speed 11 mph (SSW)    
Max Wind Speed 17 mph    
Max Gust Speed 26 mph    
Visibility 10 miles    
Events      
Averages and records for this station are not official NWS values.
T = Trace of Precipitation, MM = Missing Value Source: NWS Daily Summary

Daily Weather History Graph

Daily Weather History Graph

Search for Another Location

Airport or City:

Trip Planner

Search our weather history database for the weather conditions in past years. The results will help you decide how hot, cold, wet, or windy it might be!

Date:

Astronomy

Nov. 14, 2011 Rise Set
Actual Time 6:32 AM CST 4:50 PM CST
Civil Twilight 6:05 AM CST 5:18 PM CST
Nautical Twilight 5:34 AM CST 5:48 PM CST
Astronomical Twilight 5:04 AM CST 6:19 PM CST
Moon 7:59 PM CST (11/14) 9:48 AM CST (11/14)
Length of Visible Light 11h 12m
Length of Day
10h 17m
Waning Gibbous, 86% of the Moon is Illuminated
Nov 14
Waning Gibbous
Nov 18
Last Quarter
Nov 25
New
Dec 2
First Quarter
Dec 10
Full

Hourly Weather History & Observations

Time (CST) Temp. Dew Point Humidity Pressure Visibility Wind Dir Wind Speed Gust Speed Precip Events Conditions
12:15 AM 71.6 °F 53.6 °F 53% 29.84 in 10.0 mi SSW 8.1 mph 18.4 mph N/A   Mostly Cloudy
12:35 AM 71.6 °F 53.6 °F 53% 29.84 in 10.0 mi SSW 11.5 mph 20.7 mph N/A   Overcast
12:55 AM 71.6 °F 53.6 °F 53% 29.84 in 10.0 mi SSW 11.5 mph 21.9 mph N/A   Mostly Cloudy
1:15 AM 71.6 °F 53.6 °F 53% 29.84 in 10.0 mi South 12.7 mph 21.9 mph N/A   Overcast
1:35 AM 71.6 °F 53.6 °F 53% 29.83 in 10.0 mi South 12.7 mph 21.9 mph N/A   Mostly Cloudy
1:55 AM 69.8 °F 53.6 °F 56% 29.83 in 10.0 mi South 15.0 mph 23.0 mph N/A   Mostly Cloudy
2:15 AM 69.8 °F 53.6 °F 56% 29.83 in 10.0 mi SSW 13.8 mph 21.9 mph N/A   Scattered Clouds
2:35 AM 69.8 °F 53.6 °F 56% 29.83 in 10.0 mi SSW 11.5 mph 21.9 mph N/A   Scattered Clouds
2:55 AM 69.8 °F 53.6 °F 56% 29.83 in 10.0 mi SSW 12.7 mph 19.6 mph N/A   Mostly Cloudy
3:15 AM 69.8 °F 53.6 °F 56% 29.83 in 10.0 mi SSW 11.5 mph 17.3 mph N/A   Overcast
3:35 AM 69.8 °F 53.6 °F 56% 29.83 in 10.0 mi South 10.4 mph - N/A   Overcast
3:55 AM 69.8 °F 53.6 °F 56% 29.84 in 10.0 mi SSW 9.2 mph 21.9 mph N/A   Overcast
4:15 AM 69.8 °F 55.4 °F 60% 29.85 in 10.0 mi SSW 9.2 mph - N/A   Overcast
4:35 AM 69.8 °F 55.4 °F 60% 29.85 in 10.0 mi SSW 6.9 mph - N/A   Overcast
4:55 AM 69.8 °F 55.4 °F 60% 29.85 in 10.0 mi SSW 8.1 mph - N/A   Overcast
5:15 AM 69.8 °F 55.4 °F 60% 29.85 in 10.0 mi South 10.4 mph 16.1 mph N/A   Overcast
5:35 AM 69.8 °F 55.4 °F 60% 29.84 in 10.0 mi South 9.2 mph 19.6 mph N/A   Overcast
6:15 AM 69.8 °F 55.4 °F 60% 29.84 in 10.0 mi South 12.7 mph 19.6 mph N/A   Overcast
6:35 AM 69.8 °F 55.4 °F 60% 29.85 in 10.0 mi South 11.5 mph 18.4 mph N/A   Overcast
6:55 AM 69.8 °F 55.4 °F 60% 29.85 in 10.0 mi South 11.5 mph 20.7 mph N/A   Overcast
7:35 AM 69.8 °F 55.4 °F 60% 29.86 in 10.0 mi South 13.8 mph 19.6 mph N/A   Overcast
7:55 AM 69.8 °F 57.2 °F 64% 29.87 in 10.0 mi South 11.5 mph 17.3 mph N/A   Overcast
8:15 AM 69.8 °F 57.2 °F 64% 29.87 in 10.0 mi South 10.4 mph 16.1 mph N/A   Overcast
8:35 AM 69.8 °F 57.2 °F 64% 29.87 in 10.0 mi SSW 11.5 mph 18.4 mph N/A   Overcast
8:55 AM 69.8 °F 57.2 °F 64% 29.87 in 10.0 mi SSW 9.2 mph 19.6 mph N/A   Overcast
9:15 AM 69.8 °F 57.2 °F 64% 29.86 in 10.0 mi SSW 10.4 mph 23.0 mph N/A   Overcast
9:35 AM 71.6 °F 57.2 °F 60% 29.86 in 10.0 mi South 11.5 mph 25.3 mph N/A   Overcast
9:55 AM 73.4 °F 57.2 °F 57% 29.87 in 10.0 mi SSW 12.7 mph 23.0 mph N/A   Overcast
10:35 AM 73.4 °F 59.0 °F 61% 29.86 in 10.0 mi SSW 13.8 mph 26.5 mph N/A   Overcast
10:55 AM 73.4 °F 59.0 °F 61% 29.86 in 10.0 mi SSW 17.3 mph 25.3 mph N/A   Overcast
11:15 AM 73.4 °F 59.0 °F 61% 29.85 in 10.0 mi SW 15.0 mph 24.2 mph N/A   Overcast
11:35 AM 71.6 °F 57.2 °F 60% 29.85 in 10.0 mi SSW 9.2 mph 24.2 mph N/A   Overcast
11:55 AM 73.4 °F 59.0 °F 61% 29.83 in 10.0 mi South 10.4 mph 17.3 mph N/A   Overcast
12:15 PM 73.4 °F 59.0 °F 61% 29.82 in 10.0 mi SSW 13.8 mph 19.6 mph N/A   Overcast
12:35 PM 75.2 °F 60.8 °F 61% 29.81 in 10.0 mi SSW 13.8 mph 23.0 mph N/A   Overcast
12:55 PM 73.4 °F 59.0 °F 61% 29.81 in 10.0 mi SSW 16.1 mph 26.5 mph N/A   Overcast
1:15 PM 73.4 °F 59.0 °F 61% 29.81 in 10.0 mi SW 12.7 mph 19.6 mph N/A   Overcast
1:35 PM 73.4 °F 59.0 °F 61% 29.80 in 10.0 mi SSW 15.0 mph 21.9 mph N/A   Overcast
1:55 PM 75.2 °F 59.0 °F 57% 29.78 in 10.0 mi South 11.5 mph 20.7 mph N/A   Mostly Cloudy
2:15 PM 77.0 °F 59.0 °F 54% 29.77 in 10.0 mi South 13.8 mph 21.9 mph N/A   Mostly Cloudy
2:35 PM 75.2 °F 59.0 °F 57% 29.78 in 10.0 mi SW 15.0 mph 21.9 mph N/A   Mostly Cloudy
2:55 PM 75.2 °F 59.0 °F 57% 29.78 in 10.0 mi SSW 15.0 mph 21.9 mph N/A   Overcast
3:15 PM 75.2 °F 59.0 °F 57% 29.78 in 10.0 mi SSW 12.7 mph 17.3 mph N/A   Mostly Cloudy
3:35 PM 75.2 °F 59.0 °F 57% 29.78 in 10.0 mi SSW 11.5 mph 16.1 mph N/A   Scattered Clouds
3:55 PM 75.2 °F 59.0 °F 57% 29.77 in 10.0 mi South 12.7 mph 21.9 mph N/A   Partly Cloudy
4:15 PM 75.2 °F 59.0 °F 57% 29.77 in 10.0 mi South 11.5 mph 21.9 mph N/A   Clear
4:35 PM 75.2 °F 57.2 °F 53% 29.77 in 10.0 mi South 10.4 mph 19.6 mph N/A   Clear
4:55 PM 75.2 °F 57.2 °F 53% 29.77 in 10.0 mi South 13.8 mph 21.9 mph N/A   Clear
5:15 PM 73.4 °F 57.2 °F 57% 29.78 in 10.0 mi South 10.4 mph 17.3 mph N/A   Clear
5:35 PM 73.4 °F 57.2 °F 57% 29.78 in 10.0 mi South 10.4 mph 18.4 mph N/A   Clear
5:55 PM 73.4 °F 57.2 °F 57% 29.79 in 10.0 mi South 12.7 mph 17.3 mph N/A   Clear
6:15 PM 73.4 °F 57.2 °F 57% 29.79 in 10.0 mi South 11.5 mph 18.4 mph N/A   Clear
6:35 PM 73.4 °F 57.2 °F 57% 29.80 in 10.0 mi South 9.2 mph 19.6 mph N/A   Clear
6:55 PM 73.4 °F 57.2 °F 57% 29.80 in 10.0 mi South 9.2 mph - N/A   Clear
7:15 PM 71.6 °F 57.2 °F 60% 29.80 in 10.0 mi South 11.5 mph - N/A   Clear
7:35 PM 71.6 °F 57.2 °F 60% 29.80 in 10.0 mi South 11.5 mph 19.6 mph N/A   Clear
7:55 PM 71.6 °F 55.4 °F 57% 29.82 in 10.0 mi SSW 5.8 mph 20.7 mph N/A   Clear
8:15 PM 71.6 °F 55.4 °F 57% 29.82 in 10.0 mi South 9.2 mph 17.3 mph N/A   Clear
8:35 PM 71.6 °F 55.4 °F 57% 29.82 in 10.0 mi SSW 9.2 mph - N/A   Clear
8:55 PM 71.6 °F 55.4 °F 57% 29.82 in 10.0 mi SSW 9.2 mph - N/A   Partly Cloudy
9:15 PM 71.6 °F 55.4 °F 57% 29.82 in 10.0 mi SSW 6.9 mph - N/A   Scattered Clouds
9:35 PM 71.6 °F 55.4 °F 57% 29.83 in 10.0 mi South 6.9 mph - N/A   Mostly Cloudy
9:55 PM 71.6 °F 55.4 °F 57% 29.83 in 10.0 mi SSW 4.6 mph - N/A   Overcast
10:15 PM 71.6 °F 55.4 °F 57% 29.83 in 10.0 mi SSW 6.9 mph - N/A   Overcast
10:35 PM 71.6 °F 55.4 °F 57% 29.85 in 10.0 mi West 6.9 mph - N/A   Overcast
10:55 PM 66.2 °F 53.6 °F 64% 29.89 in 10.0 mi NW 17.3 mph 24.2 mph N/A   Overcast
11:15 PM 64.4 °F 51.8 °F 64% 29.91 in 10.0 mi NW 9.2 mph 23.0 mph N/A   Overcast
11:35 PM 60.8 °F 51.8 °F 72% 29.90 in 10.0 mi WNW 4.6 mph - 0.02 in   Overcast
11:55 PM 59.0 °F 51.8 °F 77% 29.91 in 10.0 mi WNW 5.8 mph - 0.05 in   Overcast